createdAt,value
2022-10-18T00:00:58.210Z,4.40
2022-10-18T00:02:00.498Z,4.50
2022-10-18T00:03:02.734Z,3.85
2022-10-18T00:04:05.065Z,4.38
2022-10-18T00:05:07.548Z,4.03
2022-10-18T00:06:13.508Z,4.70
2022-10-18T00:07:15.701Z,4.43
2022-10-18T00:08:18.537Z,4.90
2022-10-18T00:09:20.774Z,4.43
2022-10-18T00:10:24.585Z,5.57
2022-10-18T00:11:26.774Z,4.93
2022-10-18T00:12:28.985Z,4.65
2022-10-18T00:13:31.395Z,4.57
2022-10-18T00:14:33.596Z,4.55
2022-10-18T00:15:35.740Z,4.57
2022-10-18T00:16:38.293Z,4.70
2022-10-18T00:17:41.230Z,4.40
2022-10-18T00:18:44.519Z,4.45
2022-10-18T00:19:46.653Z,4.20
2022-10-18T00:21:06.440Z,5.35
2022-10-18T00:22:08.682Z,4.50
2022-10-18T00:23:10.869Z,4.10
2022-10-18T00:24:13.118Z,4.57
2022-10-18T00:25:16.018Z,4.30
2022-10-18T00:26:28.037Z,3.88
2022-10-18T00:27:30.447Z,4.25
2022-10-18T00:28:34.628Z,4.57
2022-10-18T00:29:36.879Z,4.68
2022-10-18T00:30:39.069Z,4.70
2022-10-18T00:31:42.689Z,4.20
2022-10-18T00:32:44.878Z,3.70
2022-10-18T00:33:50.297Z,3.85
2022-10-18T00:34:52.793Z,4.20
2022-10-18T00:35:54.943Z,4.22
2022-10-18T00:36:57.234Z,4.38
2022-10-18T00:37:59.454Z,5.00
2022-10-18T00:39:03.625Z,4.45
2022-10-18T00:40:06.374Z,4.90
2022-10-18T00:41:11.083Z,4.40
2022-10-18T00:42:21.182Z,4.18
2022-10-18T00:43:23.397Z,4.15
2022-10-18T00:44:25.550Z,3.88
2022-10-18T00:45:27.874Z,4.40
2022-10-18T00:46:44.386Z,4.93
2022-10-18T00:47:53.453Z,5.22
2022-10-18T00:48:57.778Z,4.60
2022-10-18T00:50:04.439Z,4.20
2022-10-18T00:51:06.606Z,4.50
2022-10-18T00:52:13.259Z,4.57
2022-10-18T00:53:19.828Z,4.63
2022-10-18T00:54:23.180Z,4.60
2022-10-18T00:55:26.554Z,4.25
2022-10-18T00:56:29.738Z,4.88
2022-10-18T00:57:32.867Z,4.43
2022-10-18T00:58:35.228Z,4.22
2022-10-18T00:59:37.466Z,4.22
2022-10-18T01:00:40.757Z,4.28
2022-10-18T01:01:43.468Z,4.75
2022-10-18T01:02:46.955Z,3.80
2022-10-18T01:03:51.228Z,4.47
2022-10-18T01:04:53.418Z,4.75
2022-10-18T01:05:55.601Z,4.22
2022-10-18T01:07:06.679Z,5.00
2022-10-18T01:08:24.772Z,5.07
2022-10-18T01:09:52.674Z,4.65
2022-10-18T01:11:15.108Z,4.35
2022-10-18T01:12:45.062Z,4.80
2022-10-18T01:14:10.383Z,4.63
2022-10-18T01:15:27.926Z,4.45
2022-10-18T01:16:34.630Z,5.30
2022-10-18T01:18:11.716Z,4.47
2022-10-18T01:19:42.423Z,3.80
2022-10-18T01:21:10.606Z,4.57
2022-10-18T01:22:39.416Z,3.80
2022-10-18T01:23:44.180Z,4.43
2022-10-18T01:25:12.964Z,4.47
2022-10-18T01:26:36.908Z,4.18
2022-10-18T01:28:27.608Z,4.10
2022-10-18T01:29:29.769Z,4.45
2022-10-18T01:30:50.072Z,4.70
2022-10-18T01:32:01.884Z,4.45
2022-10-18T01:33:25.487Z,4.57
2022-10-18T01:34:32.671Z,4.63
2022-10-18T01:35:40.806Z,4.03
2022-10-18T01:36:48.195Z,4.40
2022-10-18T01:37:52.484Z,4.75
2022-10-18T01:38:58.776Z,4.97
2022-10-18T01:40:06.591Z,4.47
2022-10-18T01:41:14.866Z,5.00
2022-10-18T01:42:20.863Z,4.90
2022-10-18T01:43:24.620Z,4.90
2022-10-18T01:44:31.671Z,4.50
2022-10-18T01:45:33.999Z,4.28
2022-10-18T01:46:37.514Z,4.10
2022-10-18T01:47:40.764Z,4.32
2022-10-18T01:48:43.044Z,4.05
2022-10-18T01:49:45.603Z,4.40
2022-10-18T01:50:47.786Z,4.57
2022-10-18T01:51:49.944Z,4.05
2022-10-18T01:52:52.159Z,4.18
2022-10-18T01:53:54.362Z,4.03
2022-10-18T01:54:58.061Z,3.80
2022-10-18T01:56:15.118Z,4.10
2022-10-18T01:57:29.704Z,3.33
2022-10-18T01:58:42.034Z,4.20
2022-10-18T02:00:03.548Z,3.97
2022-10-18T02:01:28.892Z,3.80
2022-10-18T02:02:43.939Z,4.15
2022-10-18T02:03:50.870Z,4.30
2022-10-18T02:05:00.145Z,3.90
2022-10-18T02:06:31.683Z,4.43
2022-10-18T02:08:12.185Z,4.60
2022-10-18T02:09:24.343Z,4.60
2022-10-18T02:10:43.421Z,4.03
2022-10-18T02:11:48.063Z,3.85
2022-10-18T02:12:52.703Z,3.75
2022-10-18T02:14:07.770Z,4.40
2022-10-18T02:15:14.294Z,3.85
2022-10-18T02:16:21.390Z,3.92
2022-10-18T02:17:28.350Z,4.05
2022-10-18T02:18:37.012Z,4.55
2022-10-18T02:19:45.825Z,4.85
2022-10-18T02:20:49.002Z,4.57
2022-10-18T02:21:53.911Z,5.25
2022-10-18T02:22:58.703Z,4.70
2022-10-18T02:24:02.403Z,5.07
2022-10-18T02:25:10.273Z,5.28
2022-10-18T02:26:14.125Z,4.40
2022-10-18T02:27:16.670Z,6.88
2022-10-18T02:28:19.042Z,9.02
2022-10-18T02:29:21.397Z,5.88
2022-10-18T02:30:32.437Z,5.55
2022-10-18T02:31:44.457Z,4.82
2022-10-18T02:32:59.380Z,5.15
2022-10-18T02:34:04.250Z,4.70
2022-10-18T02:35:06.682Z,4.78
2022-10-18T02:36:17.829Z,5.60
2022-10-18T02:37:20.410Z,5.40
2022-10-18T02:38:25.629Z,5.00
2022-10-18T02:39:32.603Z,5.05
2022-10-18T02:40:34.836Z,5.07
2022-10-18T02:41:37.008Z,4.45
2022-10-18T02:42:51.045Z,5.07
2022-10-18T02:43:53.842Z,4.78
2022-10-18T02:44:56.015Z,4.70
2022-10-18T02:45:58.423Z,5.10
2022-10-18T02:47:00.953Z,4.55
2022-10-18T02:48:03.195Z,5.10
2022-10-18T02:49:05.650Z,5.72
2022-10-18T02:50:08.575Z,5.72
2022-10-18T02:51:10.870Z,5.50
2022-10-18T02:52:13.038Z,4.78
2022-10-18T02:53:15.216Z,5.00
2022-10-18T02:54:17.417Z,4.00
2022-10-18T02:55:19.968Z,4.30
2022-10-18T02:56:22.176Z,4.38
2022-10-18T02:57:24.334Z,4.63
2022-10-18T02:58:26.445Z,4.70
2022-10-18T02:59:28.631Z,3.95
2022-10-18T03:00:30.812Z,4.50
2022-10-18T03:01:34.555Z,4.53
2022-10-18T03:02:36.769Z,4.28
2022-10-18T03:03:38.929Z,3.75
2022-10-18T03:04:41.248Z,4.63
2022-10-18T03:05:43.372Z,5.20
2022-10-18T03:06:45.563Z,4.72
2022-10-18T03:07:47.840Z,4.70
2022-10-18T03:08:49.982Z,4.68
2022-10-18T03:09:52.159Z,4.45
2022-10-18T03:10:54.322Z,4.35
2022-10-18T03:11:57.408Z,4.50
2022-10-18T03:12:59.554Z,4.47
2022-10-18T03:14:01.720Z,4.40
2022-10-18T03:15:04.182Z,4.82
2022-10-18T03:16:06.339Z,4.70
2022-10-18T03:17:08.697Z,4.60
2022-10-18T03:18:10.907Z,4.53
2022-10-18T03:19:13.108Z,4.55
2022-10-18T03:20:15.376Z,4.53
2022-10-18T03:21:17.564Z,4.50
2022-10-18T03:22:19.811Z,4.65
2022-10-18T03:23:21.990Z,4.72
2022-10-18T03:24:24.143Z,4.70
2022-10-18T03:25:26.406Z,4.28
2022-10-18T03:26:28.581Z,4.45
2022-10-18T03:27:30.989Z,4.60
2022-10-18T03:28:33.553Z,4.55
2022-10-18T03:29:35.735Z,4.68
2022-10-18T03:30:38.877Z,4.00
2022-10-18T03:31:41.102Z,4.32
2022-10-18T03:32:43.279Z,4.65
2022-10-18T03:33:46.147Z,4.88
2022-10-18T03:34:48.270Z,5.30
2022-10-18T03:35:50.488Z,5.63
2022-10-18T03:36:52.675Z,5.55
2022-10-18T03:37:54.877Z,5.88
2022-10-18T03:38:57.019Z,5.72
2022-10-18T03:39:59.413Z,4.95
2022-10-18T03:41:01.600Z,5.20
2022-10-18T03:42:03.801Z,4.97
2022-10-18T03:43:06.210Z,6.10
2022-10-18T03:44:08.490Z,5.28
2022-10-18T03:45:11.022Z,5.30
2022-10-18T03:46:13.211Z,5.25
2022-10-18T03:47:15.702Z,5.72
2022-10-18T03:48:17.888Z,4.72
2022-10-18T03:49:20.122Z,4.82
2022-10-18T03:50:22.751Z,4.47
2022-10-18T03:51:24.980Z,4.32
2022-10-18T03:52:27.249Z,5.07
2022-10-18T03:53:29.422Z,5.68
2022-10-18T03:54:31.666Z,4.80
2022-10-18T03:55:33.833Z,4.47
2022-10-18T03:56:36.009Z,5.93
2022-10-18T03:57:38.183Z,5.50
2022-10-18T03:58:40.344Z,4.47
2022-10-18T03:59:42.538Z,4.82
2022-10-18T04:00:44.703Z,4.80
2022-10-18T04:01:46.916Z,4.85
2022-10-18T04:02:57.549Z,4.90
2022-10-18T04:03:59.793Z,5.00
2022-10-18T04:05:01.941Z,5.65
2022-10-18T04:06:04.312Z,5.22
2022-10-18T04:07:06.590Z,5.80
2022-10-18T04:08:08.830Z,4.93
2022-10-18T04:09:11.297Z,5.20
2022-10-18T04:10:13.581Z,4.97
2022-10-18T04:11:15.773Z,4.95
2022-10-18T04:12:18.024Z,5.72
2022-10-18T04:13:20.212Z,5.78
2022-10-18T04:14:22.490Z,5.32
2022-10-18T04:15:24.849Z,4.80
2022-10-18T04:16:27.241Z,5.03
2022-10-18T04:17:29.627Z,5.47
2022-10-18T04:18:32.042Z,5.20
2022-10-18T04:19:34.305Z,5.32
2022-10-18T04:20:36.452Z,5.55
2022-10-18T04:21:38.838Z,4.82
2022-10-18T04:22:41.081Z,5.18
2022-10-18T04:23:43.246Z,4.32
2022-10-18T04:24:45.464Z,4.95
2022-10-18T04:25:47.610Z,4.80
2022-10-18T04:26:49.831Z,4.85
2022-10-18T04:27:52.069Z,4.70
2022-10-18T04:28:54.480Z,5.43
2022-10-18T04:29:56.758Z,5.57
2022-10-18T04:30:58.927Z,5.60
2022-10-18T04:32:01.322Z,5.03
2022-10-18T04:33:03.449Z,5.20
2022-10-18T04:34:05.598Z,5.47
2022-10-18T04:35:08.088Z,4.85
2022-10-18T04:36:10.337Z,5.47
2022-10-18T04:37:12.566Z,4.80
2022-10-18T04:38:14.847Z,8.23
2022-10-18T04:39:17.025Z,5.57
2022-10-18T04:40:20.003Z,11.63
2022-10-18T04:41:22.233Z,9.57
2022-10-18T04:42:24.840Z,10.10
2022-10-18T04:43:26.979Z,7.70
2022-10-18T04:44:29.179Z,6.85
2022-10-18T04:45:31.389Z,5.97
2022-10-18T04:46:33.934Z,6.07
2022-10-18T04:47:36.183Z,6.25
2022-10-18T04:48:38.426Z,6.43
2022-10-18T04:49:40.578Z,6.32
2022-10-18T04:50:42.713Z,6.05
2022-10-18T04:51:49.841Z,5.40
2022-10-18T04:52:53.382Z,6.25
2022-10-18T04:53:56.318Z,6.82
2022-10-18T04:54:58.861Z,7.50
2022-10-18T04:56:01.174Z,6.32
2022-10-18T04:57:03.813Z,5.60
2022-10-18T04:58:05.961Z,6.07
2022-10-18T04:59:08.180Z,5.88
2022-10-18T05:00:10.809Z,5.63
2022-10-18T05:01:13.239Z,5.72
2022-10-18T05:02:15.548Z,5.93
2022-10-18T05:03:18.121Z,6.57
2022-10-18T05:04:20.317Z,6.90
2022-10-18T05:05:23.206Z,6.80
2022-10-18T05:06:27.041Z,5.88
2022-10-18T05:07:29.216Z,5.97
2022-10-18T05:08:33.329Z,5.95
2022-10-18T05:09:35.495Z,5.95
2022-10-18T05:10:37.910Z,7.38
2022-10-18T05:11:40.187Z,6.13
2022-10-18T05:12:43.731Z,5.90
2022-10-18T05:13:48.567Z,6.43
2022-10-18T05:14:53.311Z,6.65
2022-10-18T05:15:55.806Z,6.70
2022-10-18T05:16:58.025Z,5.88
2022-10-18T05:18:00.191Z,6.55
2022-10-18T05:19:05.202Z,7.03
2022-10-18T05:20:07.694Z,6.10
2022-10-18T05:21:10.336Z,5.35
2022-10-18T05:22:12.599Z,5.88
2022-10-18T05:23:14.767Z,5.38
2022-10-18T05:24:17.019Z,5.07
2022-10-18T05:25:19.345Z,5.60
2022-10-18T05:26:21.584Z,5.43
2022-10-18T05:27:23.793Z,5.30
2022-10-18T05:28:42.146Z,5.57
2022-10-18T05:29:44.495Z,4.60
2022-10-18T05:30:46.744Z,4.85
2022-10-18T05:31:49.937Z,5.60
2022-10-18T05:32:52.086Z,5.50
2022-10-18T05:33:54.237Z,5.18
2022-10-18T05:34:56.407Z,5.50
2022-10-18T05:35:58.725Z,4.97
2022-10-18T05:37:01.036Z,6.53
2022-10-18T05:38:05.733Z,5.57
2022-10-18T05:39:07.948Z,5.00
2022-10-18T05:40:10.711Z,5.10
2022-10-18T05:41:13.038Z,5.13
2022-10-18T05:42:15.207Z,5.28
2022-10-18T05:43:17.758Z,5.35
2022-10-18T05:44:20.037Z,5.35
2022-10-18T05:45:22.185Z,5.18
2022-10-18T05:46:24.754Z,4.95
2022-10-18T05:47:26.950Z,4.97
2022-10-18T05:48:29.165Z,8.55
2022-10-18T05:49:31.475Z,5.53
2022-10-18T05:50:36.722Z,5.63
2022-10-18T05:51:41.739Z,6.15
2022-10-18T05:52:43.923Z,6.25
2022-10-18T05:53:46.243Z,5.32
2022-10-18T05:54:48.427Z,4.55
2022-10-18T05:55:50.610Z,5.15
2022-10-18T05:56:52.939Z,5.65
2022-10-18T05:57:55.342Z,5.80
2022-10-18T05:58:57.580Z,5.50
2022-10-18T05:59:59.749Z,5.55
2022-10-18T06:01:04.092Z,5.20
2022-10-18T06:02:06.724Z,5.50
2022-10-18T06:03:08.952Z,6.00
2022-10-18T06:04:11.442Z,4.47
2022-10-18T06:05:13.715Z,5.32
2022-10-18T06:06:15.966Z,5.25
2022-10-18T06:07:18.226Z,5.03
2022-10-18T06:08:20.474Z,5.60
2022-10-18T06:09:22.754Z,5.22
2022-10-18T06:10:25.214Z,4.90
2022-10-18T06:11:27.435Z,4.97
2022-10-18T06:12:29.682Z,5.35
2022-10-18T06:13:32.508Z,4.90
2022-10-18T06:14:38.719Z,5.28
2022-10-18T06:15:40.979Z,5.13
2022-10-18T06:16:43.175Z,5.60
2022-10-18T06:17:45.480Z,5.43
2022-10-18T06:18:49.700Z,5.30
2022-10-18T06:19:51.895Z,5.95
2022-10-18T06:20:58.277Z,5.50
2022-10-18T06:22:00.511Z,6.57
2022-10-18T06:23:02.711Z,6.25
2022-10-18T06:24:05.240Z,6.03
2022-10-18T06:25:07.963Z,6.15
2022-10-18T06:26:11.479Z,5.63
2022-10-18T06:27:13.987Z,6.22
2022-10-18T06:28:16.231Z,6.57
2022-10-18T06:29:18.511Z,6.22
2022-10-18T06:30:20.823Z,5.72
2022-10-18T06:31:23.119Z,6.00
2022-10-18T06:32:25.558Z,6.70
2022-10-18T06:33:27.798Z,6.40
2022-10-18T06:34:29.999Z,6.47
2022-10-18T06:35:32.207Z,5.82
2022-10-18T06:36:34.531Z,6.95
2022-10-18T06:37:38.122Z,5.57
2022-10-18T06:38:40.529Z,4.97
2022-10-18T06:39:42.712Z,5.63
2022-10-18T06:40:47.617Z,6.28
2022-10-18T06:41:49.949Z,6.10
2022-10-18T06:43:00.169Z,5.90
2022-10-18T06:44:08.549Z,6.10
2022-10-18T06:45:10.880Z,5.80
2022-10-18T06:46:13.095Z,5.45
2022-10-18T06:47:15.243Z,4.57
2022-10-18T06:49:25.807Z,5.70
2022-10-18T06:50:28.030Z,5.47
2022-10-18T06:51:30.222Z,4.60
2022-10-18T06:52:32.693Z,4.53
2022-10-18T06:53:43.958Z,7.45
2022-10-18T06:54:55.521Z,6.13
2022-10-18T06:56:02.617Z,6.15
2022-10-18T06:57:04.815Z,5.65
2022-10-18T06:58:07.001Z,5.15
2022-10-18T06:59:09.272Z,6.05
2022-10-18T07:00:12.189Z,6.18
2022-10-18T07:01:17.062Z,6.05
2022-10-18T07:02:19.292Z,6.03
2022-10-18T07:03:24.659Z,7.00
2022-10-18T07:04:30.410Z,6.47
2022-10-18T07:06:40.025Z,6.55
2022-10-18T07:07:42.356Z,6.55
2022-10-18T07:08:45.458Z,6.07
2022-10-18T07:09:47.800Z,5.78
2022-10-18T07:10:53.382Z,5.20
2022-10-18T07:11:55.564Z,5.13
2022-10-18T07:13:13.585Z,4.95
2022-10-18T07:14:19.907Z,6.28
2022-10-18T07:15:24.001Z,5.05
2022-10-18T07:16:26.258Z,6.30
2022-10-18T07:17:28.580Z,4.75
2022-10-18T07:18:30.978Z,5.20
2022-10-18T07:19:33.221Z,5.20
2022-10-18T07:20:35.408Z,5.60
2022-10-18T07:21:37.656Z,5.30
2022-10-18T07:22:39.980Z,4.82
2022-10-18T07:23:44.220Z,5.45
2022-10-18T07:24:46.432Z,5.13
2022-10-18T07:25:48.660Z,5.43
2022-10-18T07:26:50.870Z,5.75
2022-10-18T07:27:53.098Z,6.22
2022-10-18T07:29:00.222Z,5.55
2022-10-18T07:30:03.480Z,6.10
2022-10-18T07:31:07.725Z,6.35
2022-10-18T07:32:09.993Z,6.03
2022-10-18T07:33:12.237Z,6.65
2022-10-18T07:34:14.823Z,6.43
2022-10-18T07:35:17.095Z,6.63
2022-10-18T07:36:21.292Z,6.75
2022-10-18T07:37:26.619Z,6.18
2022-10-18T07:38:32.044Z,6.50
2022-10-18T07:39:34.227Z,6.90
2022-10-18T07:40:36.480Z,7.38
2022-10-18T07:41:39.564Z,7.43
2022-10-18T07:42:41.790Z,6.75
2022-10-18T07:43:50.652Z,7.25
2022-10-18T07:44:52.879Z,6.40
2022-10-18T07:45:56.616Z,7.15
2022-10-18T07:46:58.756Z,7.60
2022-10-18T07:48:00.975Z,6.70
2022-10-18T07:49:03.278Z,6.53
2022-10-18T07:50:06.111Z,7.50
2022-10-18T07:51:09.043Z,6.70
2022-10-18T07:52:11.657Z,7.88
2022-10-18T07:53:14.058Z,7.28
2022-10-18T07:54:16.390Z,9.27
2022-10-18T07:55:18.643Z,6.82
2022-10-18T07:56:21.648Z,6.65
2022-10-18T07:57:23.837Z,6.70
2022-10-18T07:58:26.074Z,6.00
2022-10-18T07:59:28.244Z,6.05
2022-10-18T08:00:30.441Z,5.70
2022-10-18T08:01:32.649Z,5.65
2022-10-18T08:02:35.187Z,5.97
2022-10-18T08:03:38.617Z,5.00
2022-10-18T08:04:41.517Z,5.78
2022-10-18T08:05:43.794Z,5.28
2022-10-18T08:06:46.225Z,5.50
2022-10-18T08:07:48.411Z,5.88
2022-10-18T08:09:13.384Z,6.38
2022-10-18T08:10:15.621Z,5.45
2022-10-18T08:11:21.204Z,5.70
2022-10-18T08:12:23.401Z,6.00
2022-10-18T08:13:25.548Z,6.07
2022-10-18T08:14:27.698Z,5.40
2022-10-18T08:15:29.922Z,5.78
2022-10-18T08:17:39.277Z,5.80
2022-10-18T08:18:42.034Z,5.10
2022-10-18T08:19:52.906Z,5.40
2022-10-18T08:21:09.005Z,5.18
2022-10-18T08:22:11.286Z,5.50
2022-10-18T08:23:13.471Z,5.82
2022-10-18T08:24:15.725Z,5.78
2022-10-18T08:25:18.773Z,4.43
2022-10-18T08:26:22.687Z,5.25
2022-10-18T08:27:26.233Z,5.20
2022-10-18T08:28:28.547Z,4.65
2022-10-18T08:29:32.004Z,4.60
2022-10-18T08:30:35.750Z,4.82
2022-10-18T08:31:37.923Z,4.18
2022-10-18T08:32:40.255Z,4.85
2022-10-18T08:33:42.702Z,4.22
2022-10-18T08:34:45.031Z,4.70
2022-10-18T08:35:57.821Z,4.30
2022-10-18T08:37:00.172Z,4.70
2022-10-18T08:38:02.412Z,5.10
2022-10-18T08:39:04.633Z,4.80
2022-10-18T08:40:07.453Z,4.57
2022-10-18T08:41:37.350Z,4.82
2022-10-18T08:42:52.626Z,4.68
2022-10-18T08:44:17.464Z,4.35
2022-10-18T08:45:37.370Z,4.22
2022-10-18T08:46:46.954Z,3.83
2022-10-18T08:47:51.976Z,4.13
2022-10-18T08:48:56.818Z,3.90
2022-10-18T08:50:05.868Z,3.80
2022-10-18T08:51:27.141Z,4.45
2022-10-18T08:53:03.252Z,3.72
2022-10-18T08:54:15.652Z,4.25
2022-10-18T08:56:45.359Z,3.95
2022-10-18T08:57:48.891Z,4.28
2022-10-18T08:58:51.299Z,4.38
2022-10-18T08:59:53.489Z,4.45
2022-10-18T09:01:13.750Z,4.45
2022-10-18T09:02:41.426Z,4.68
2022-10-18T09:04:02.026Z,4.03
2022-10-18T09:05:17.167Z,3.80
2022-10-18T09:06:43.227Z,3.90
2022-10-18T09:08:11.791Z,3.95
2022-10-18T09:09:24.094Z,3.92
2022-10-18T09:10:48.450Z,3.95
2022-10-18T09:12:09.894Z,3.63
2022-10-18T09:13:40.566Z,3.60
2022-10-18T09:14:48.386Z,3.20
2022-10-18T09:16:01.259Z,3.13
2022-10-18T09:17:15.855Z,3.47
2022-10-18T09:18:31.476Z,3.20
2022-10-18T09:19:45.970Z,3.30
2022-10-18T09:20:58.612Z,3.17
2022-10-18T09:22:19.311Z,2.92
2022-10-18T09:23:31.470Z,2.60
2022-10-18T09:24:39.283Z,3.20
2022-10-18T09:25:51.310Z,3.00
2022-10-18T09:27:01.113Z,3.20
2022-10-18T09:28:15.719Z,3.47
2022-10-18T09:29:39.203Z,2.90
2022-10-18T09:30:50.551Z,2.55
2022-10-18T09:32:00.130Z,2.92
2022-10-18T09:33:18.755Z,2.78
2022-10-18T09:34:42.146Z,2.90
2022-10-18T09:35:57.937Z,2.55
2022-10-18T09:37:00.873Z,2.90
2022-10-18T09:38:09.197Z,3.10
2022-10-18T09:39:14.927Z,2.75
2022-10-18T09:40:27.844Z,2.67
2022-10-18T09:41:35.423Z,2.70
2022-10-18T09:42:41.930Z,2.20
2022-10-18T09:44:03.126Z,2.90
2022-10-18T09:45:23.596Z,3.15
2022-10-18T09:46:30.555Z,2.97
2022-10-18T09:47:41.378Z,2.75
2022-10-18T09:48:52.622Z,3.35
2022-10-18T09:49:59.063Z,2.47
2022-10-18T09:51:08.672Z,2.95
2022-10-18T09:52:18.554Z,2.60
2022-10-18T09:53:40.466Z,2.75
2022-10-18T09:54:55.944Z,2.63
2022-10-18T09:56:00.868Z,2.38
2022-10-18T09:57:08.131Z,3.05
2022-10-18T09:58:13.296Z,3.03
2022-10-18T09:59:40.949Z,2.53
2022-10-18T10:00:49.510Z,2.55
2022-10-18T10:01:51.760Z,2.63
2022-10-18T10:02:54.302Z,2.30
2022-10-18T10:03:56.624Z,2.90
2022-10-18T10:04:58.917Z,2.90
2022-10-18T10:06:13.068Z,3.17
2022-10-18T10:07:25.135Z,3.15
2022-10-18T10:08:34.885Z,2.45
2022-10-18T10:09:49.440Z,2.47
2022-10-18T10:10:52.297Z,2.80
2022-10-18T10:11:55.698Z,2.70
2022-10-18T10:13:23.026Z,2.78
2022-10-18T10:14:28.123Z,2.40
2022-10-18T10:15:35.265Z,2.67
2022-10-18T10:17:21.328Z,2.60
2022-10-18T10:18:30.888Z,2.92
2022-10-18T10:19:38.146Z,2.67
2022-10-18T10:20:54.912Z,2.78
2022-10-18T10:22:01.825Z,3.25
2022-10-18T10:23:36.081Z,2.78
2022-10-18T10:24:49.907Z,2.92
2022-10-18T10:25:54.603Z,2.85
2022-10-18T10:27:02.833Z,3.13
2022-10-18T10:28:15.778Z,2.72
2022-10-18T10:29:44.468Z,2.80
2022-10-18T10:30:47.397Z,3.15
2022-10-18T10:32:03.902Z,3.30
2022-10-18T10:33:06.779Z,3.00
2022-10-18T10:34:14.690Z,2.75
2022-10-18T10:35:33.865Z,3.05
2022-10-18T10:36:48.756Z,3.20
2022-10-18T10:37:53.290Z,3.42
2022-10-18T10:39:19.371Z,2.63
2022-10-18T10:40:30.373Z,2.40
2022-10-18T10:41:33.320Z,3.55
2022-10-18T10:42:38.944Z,2.78
2022-10-18T10:43:44.808Z,2.80
2022-10-18T10:44:55.090Z,3.10
2022-10-18T10:46:06.193Z,6.47
2022-10-18T10:47:08.385Z,2.95
2022-10-18T10:48:16.687Z,3.55
2022-10-18T10:49:39.043Z,2.65
2022-10-18T10:52:09.199Z,3.05
2022-10-18T10:53:51.060Z,3.25
2022-10-18T10:55:05.845Z,3.05
2022-10-18T10:56:28.265Z,2.97
2022-10-18T10:57:30.872Z,3.03
2022-10-18T10:58:40.080Z,3.17
2022-10-18T10:59:46.200Z,3.20
2022-10-18T11:00:48.370Z,2.97
2022-10-18T11:02:17.598Z,3.00
2022-10-18T11:03:29.955Z,2.83
2022-10-18T11:04:32.485Z,2.88
2022-10-18T11:05:44.070Z,3.05
2022-10-18T11:06:59.946Z,2.97
2022-10-18T11:08:04.962Z,2.92
2022-10-18T11:09:19.229Z,3.38
2022-10-18T11:10:29.053Z,3.00
2022-10-18T11:11:39.073Z,3.38
2022-10-18T11:12:45.370Z,3.28
2022-10-18T11:14:20.620Z,3.72
2022-10-18T11:15:43.222Z,3.40
2022-10-18T11:17:08.462Z,3.65
2022-10-18T11:18:21.386Z,3.40
2022-10-18T11:19:37.969Z,3.10
2022-10-18T11:20:54.703Z,3.25
2022-10-18T11:21:57.730Z,3.15
2022-10-18T11:23:03.574Z,3.40
2022-10-18T11:24:11.920Z,3.50
2022-10-18T11:25:16.066Z,3.35
2022-10-18T11:26:24.235Z,2.72
2022-10-18T11:28:00.276Z,2.33
2022-10-18T11:29:27.321Z,2.90
2022-10-18T11:30:53.336Z,2.70
2022-10-18T11:32:23.084Z,2.42
2022-10-18T11:34:08.869Z,3.05
2022-10-18T11:35:38.711Z,2.83
2022-10-18T11:37:27.235Z,2.47
2022-10-18T11:38:41.068Z,2.80
2022-10-18T11:40:03.442Z,2.63
2022-10-18T11:41:27.596Z,2.42
2022-10-18T11:43:01.104Z,3.03
2022-10-18T11:44:32.462Z,2.30
2022-10-18T11:46:06.024Z,2.33
2022-10-18T11:47:18.735Z,2.70
2022-10-18T11:48:48.958Z,2.78
2022-10-18T11:49:59.704Z,2.55
2022-10-18T11:51:13.629Z,2.25
2022-10-18T11:52:42.321Z,2.58
2022-10-18T11:53:51.642Z,2.25
2022-10-18T11:55:30.353Z,2.70
2022-10-18T11:56:56.463Z,2.33
2022-10-18T11:57:58.602Z,2.45
2022-10-18T11:59:32.599Z,2.45
2022-10-18T12:01:06.401Z,2.28
2022-10-18T12:02:45.466Z,2.30
2022-10-18T12:03:58.632Z,2.00
2022-10-18T12:05:22.679Z,2.28
2022-10-18T12:06:31.210Z,2.03
2022-10-18T12:07:40.686Z,2.17
2022-10-18T12:08:47.763Z,1.90
2022-10-18T12:09:54.747Z,2.25
2022-10-18T12:11:05.062Z,1.80
2022-10-18T12:12:26.439Z,2.10
2022-10-18T12:13:50.224Z,2.33
2022-10-18T12:15:15.077Z,2.10
2022-10-18T12:16:38.828Z,1.80
2022-10-18T12:17:50.128Z,2.00
2022-10-18T12:18:57.609Z,1.73
2022-10-18T12:20:07.431Z,2.22
2022-10-18T12:21:12.988Z,1.80
2022-10-18T12:22:24.280Z,2.00
2022-10-18T12:23:26.394Z,1.85
2022-10-18T12:24:31.641Z,1.50
2022-10-18T12:25:38.219Z,1.70
2022-10-18T12:26:40.789Z,1.65
2022-10-18T12:27:52.580Z,1.50
2022-10-18T12:29:19.421Z,1.88
2022-10-18T12:30:30.330Z,1.73
2022-10-18T12:31:36.892Z,1.75
2022-10-18T12:32:40.077Z,1.60
2022-10-18T12:33:48.378Z,1.70
2022-10-18T12:34:52.922Z,1.50
2022-10-18T12:36:18.638Z,1.40
2022-10-18T12:37:35.863Z,1.08
2022-10-18T12:38:42.093Z,1.40
2022-10-18T12:40:09.161Z,1.45
2022-10-18T12:41:21.993Z,1.60
2022-10-18T12:42:27.179Z,1.88
2022-10-18T12:43:36.688Z,1.50
2022-10-18T12:44:39.949Z,1.40
2022-10-18T12:45:57.400Z,1.40
2022-10-18T12:47:03.156Z,1.67
2022-10-18T12:48:07.987Z,1.63
2022-10-18T12:49:12.404Z,1.40
2022-10-18T12:50:39.250Z,1.70
2022-10-18T12:51:54.181Z,1.75
2022-10-18T12:53:09.731Z,1.70
2022-10-18T12:54:12.883Z,1.85
2022-10-18T12:55:20.717Z,1.42
2022-10-18T12:56:28.832Z,1.48
2022-10-18T12:57:52.661Z,1.95
2022-10-18T12:59:16.449Z,1.90
2022-10-18T13:00:30.683Z,1.98
2022-10-18T13:01:51.153Z,2.20
2022-10-18T13:03:13.402Z,2.15
2022-10-18T13:04:27.382Z,2.50
2022-10-18T13:05:56.094Z,2.20
2022-10-18T13:06:59.536Z,1.90
2022-10-18T13:08:27.595Z,2.15
2022-10-18T13:09:36.334Z,2.20
2022-10-18T13:10:38.641Z,2.50
2022-10-18T13:11:40.886Z,2.25
2022-10-18T13:12:51.740Z,2.20
2022-10-18T13:14:24.612Z,2.30
2022-10-18T13:15:44.144Z,2.17
2022-10-18T13:16:59.209Z,2.38
2022-10-18T13:18:28.417Z,2.10
2022-10-18T13:20:20.504Z,1.80
2022-10-18T13:21:29.329Z,2.40
2022-10-18T13:22:58.201Z,2.80
2022-10-18T13:24:19.345Z,2.47
2022-10-18T13:25:28.606Z,2.25
2022-10-18T13:27:04.063Z,2.28
2022-10-18T13:28:35.104Z,2.25
2022-10-18T13:30:16.065Z,2.50
2022-10-18T13:31:28.198Z,2.03
2022-10-18T13:32:45.824Z,2.30
2022-10-18T13:33:48.623Z,1.98
2022-10-18T13:34:51.190Z,2.60
2022-10-18T13:35:55.417Z,2.30
2022-10-18T13:37:03.378Z,2.28
2022-10-18T13:38:29.002Z,2.08
2022-10-18T13:39:33.114Z,2.08
2022-10-18T13:40:35.562Z,2.13
2022-10-18T13:41:43.451Z,2.13
2022-10-18T13:42:51.474Z,2.15
2022-10-18T13:43:53.838Z,2.30
2022-10-18T13:45:31.420Z,2.10
2022-10-18T13:46:33.559Z,2.22
2022-10-18T13:47:37.732Z,2.20
2022-10-18T13:48:39.953Z,1.92
2022-10-18T13:49:58.525Z,2.50
2022-10-18T13:51:22.960Z,2.58
2022-10-18T13:52:43.113Z,2.30
2022-10-18T13:53:52.288Z,2.22
2022-10-18T13:55:31.678Z,2.40
2022-10-18T13:56:43.019Z,2.10
2022-10-18T13:58:09.865Z,2.35
2022-10-18T13:59:17.745Z,2.55
2022-10-18T14:00:50.582Z,2.28
2022-10-18T14:02:15.070Z,2.35
2022-10-18T14:03:56.430Z,2.35
2022-10-18T14:05:25.124Z,2.10
2022-10-18T14:06:37.997Z,2.10
2022-10-18T14:07:43.386Z,3.17
2022-10-18T14:08:58.403Z,2.33
2022-10-18T14:10:04.252Z,2.60
2022-10-18T14:11:30.319Z,2.28
2022-10-18T14:12:39.923Z,2.42
2022-10-18T14:13:46.600Z,2.40
2022-10-18T14:14:48.709Z,2.30
2022-10-18T14:15:54.497Z,2.50
2022-10-18T14:17:06.456Z,2.25
2022-10-18T14:18:14.427Z,2.53
2022-10-18T14:19:26.122Z,2.58
2022-10-18T14:20:49.378Z,2.25
2022-10-18T14:22:23.611Z,2.50
2022-10-18T14:23:33.591Z,2.42
2022-10-18T14:24:38.363Z,2.45
2022-10-18T14:25:40.636Z,2.40
2022-10-18T14:26:44.195Z,2.58
2022-10-18T14:27:50.898Z,2.35
2022-10-18T14:29:06.682Z,2.53
2022-10-18T14:30:18.559Z,2.20
2022-10-18T14:31:20.744Z,3.03
2022-10-18T14:32:30.043Z,2.22
2022-10-18T14:33:37.972Z,2.35
2022-10-18T14:34:44.392Z,2.55
2022-10-18T14:36:02.575Z,2.50
2022-10-18T14:37:05.780Z,2.50
2022-10-18T14:38:13.955Z,2.50
2022-10-18T14:39:23.858Z,2.20
2022-10-18T14:40:41.148Z,2.50
2022-10-18T14:41:50.105Z,2.45
2022-10-18T14:42:52.305Z,2.60
2022-10-18T14:44:11.537Z,2.50
2022-10-18T14:45:21.462Z,2.97
2022-10-18T14:46:29.012Z,3.15
2022-10-18T14:47:37.306Z,2.63
2022-10-18T14:48:39.541Z,2.60
2022-10-18T14:49:44.224Z,2.65
2022-10-18T14:50:59.069Z,2.75
2022-10-18T14:52:01.479Z,2.45
2022-10-18T14:53:09.309Z,2.63
2022-10-18T14:54:16.653Z,2.60
2022-10-18T14:55:24.371Z,2.53
2022-10-18T14:56:28.822Z,2.17
2022-10-18T14:57:37.293Z,2.20
2022-10-18T14:58:41.828Z,2.00
2022-10-18T14:59:56.901Z,2.38
2022-10-18T15:00:59.376Z,2.47
2022-10-18T15:02:06.664Z,2.10
2022-10-18T15:03:14.689Z,2.60
2022-10-18T15:04:16.998Z,2.38
2022-10-18T15:05:22.812Z,2.20
2022-10-18T15:06:25.489Z,2.20
2022-10-18T15:07:31.255Z,2.42
2022-10-18T15:08:39.790Z,2.20
2022-10-18T15:09:43.520Z,2.40
2022-10-18T15:10:46.455Z,2.70
2022-10-18T15:11:49.285Z,2.45
2022-10-18T15:13:10.583Z,2.45
2022-10-18T15:14:16.568Z,2.60
2022-10-18T15:15:24.216Z,2.70
2022-10-18T15:16:29.208Z,3.08